createdAt,value
2022-08-23T00:02:29.783Z,6.72
2022-08-23T00:05:08.661Z,7.90
2022-08-23T00:07:39.887Z,8.32
2022-08-23T00:10:12.415Z,6.90
2022-08-23T00:12:40.494Z,7.10
2022-08-23T00:15:11.078Z,7.88
2022-08-23T00:17:39.525Z,7.43
2022-08-23T00:20:10.186Z,7.63
2022-08-23T00:22:40.026Z,7.20
2022-08-23T00:25:11.291Z,6.70
2022-08-23T00:27:39.123Z,6.32
2022-08-23T00:30:10.811Z,5.78
2022-08-23T00:32:40.403Z,7.00
2022-08-23T00:35:10.237Z,7.25
2022-08-23T00:37:37.960Z,7.25
2022-08-23T00:40:09.561Z,7.40
2022-08-23T00:43:15.216Z,7.22
2022-08-23T00:46:28.154Z,6.80
2022-08-23T00:48:56.053Z,8.02
2022-08-23T00:51:50.747Z,6.50
2022-08-23T00:54:24.408Z,7.40
2022-08-23T00:56:53.429Z,6.90
2022-08-23T00:59:20.916Z,7.03
2022-08-23T01:01:49.306Z,7.28
2022-08-23T01:04:17.921Z,6.75
2022-08-23T01:07:02.024Z,6.90
2022-08-23T01:09:29.318Z,7.22
2022-08-23T01:12:08.230Z,7.28
2022-08-23T01:14:49.437Z,7.50
2022-08-23T01:17:24.782Z,7.65
2022-08-23T01:20:14.394Z,7.70
2022-08-23T01:23:02.232Z,7.32
2022-08-23T01:25:33.718Z,6.90
2022-08-23T01:28:01.214Z,6.93
2022-08-23T01:30:33.089Z,7.00
2022-08-23T01:33:06.132Z,7.68
2022-08-23T01:35:47.434Z,6.90
2022-08-23T01:38:15.393Z,6.95
2022-08-23T01:40:44.780Z,6.57
2022-08-23T01:43:14.239Z,6.07
2022-08-23T01:45:42.873Z,6.70
2022-08-23T01:48:12.331Z,7.50
2022-08-23T01:50:39.475Z,7.00
2022-08-23T01:53:08.304Z,7.88
2022-08-23T01:55:36.799Z,6.85
2022-08-23T01:58:05.946Z,5.95
2022-08-23T02:00:38.834Z,7.18
2022-08-23T02:03:09.288Z,6.35
2022-08-23T02:05:37.265Z,7.65
2022-08-23T02:08:25.882Z,7.35
2022-08-23T02:10:55.772Z,7.65
2022-08-23T02:13:24.012Z,7.80
2022-08-23T02:15:52.447Z,6.88
2022-08-23T02:18:21.303Z,8.13
2022-08-23T02:20:52.363Z,7.88
2022-08-23T02:23:22.338Z,7.28
2022-08-23T02:25:53.910Z,7.53
2022-08-23T02:28:23.638Z,8.65
2022-08-23T02:30:53.759Z,7.40
2022-08-23T02:33:21.106Z,7.30
2022-08-23T02:35:49.000Z,7.10
2022-08-23T02:38:18.300Z,7.43
2022-08-23T02:40:45.604Z,8.10
2022-08-23T02:43:12.848Z,8.38
2022-08-23T02:45:40.903Z,8.27
2022-08-23T02:48:09.123Z,8.00
2022-08-23T02:50:52.231Z,7.38
2022-08-23T02:53:19.316Z,7.18
2022-08-23T02:55:47.737Z,8.15
2022-08-23T02:58:14.690Z,8.02
2022-08-23T03:00:41.590Z,8.35
2022-08-23T03:03:08.888Z,7.22
2022-08-23T03:05:35.744Z,7.70
2022-08-23T03:08:03.356Z,6.35
2022-08-23T03:10:36.142Z,7.72
2022-08-23T03:13:03.124Z,7.10
2022-08-23T03:15:30.375Z,7.93
2022-08-23T03:17:57.324Z,8.10
2022-08-23T03:20:24.562Z,7.32
2022-08-23T03:22:54.763Z,8.52
2022-08-23T03:25:24.762Z,8.25
2022-08-23T03:28:07.720Z,8.27
2022-08-23T03:30:38.034Z,8.27
2022-08-23T03:33:06.469Z,7.95
2022-08-23T03:35:33.354Z,7.43
2022-08-23T03:38:01.316Z,6.63
2022-08-23T03:40:28.395Z,8.18
2022-08-23T03:42:55.716Z,7.63
2022-08-23T03:45:25.259Z,7.90
2022-08-23T03:47:52.212Z,7.50
2022-08-23T03:50:19.655Z,7.22
2022-08-23T03:52:47.232Z,8.07
2022-08-23T03:55:15.135Z,8.23
2022-08-23T03:57:44.935Z,7.35
2022-08-23T04:00:15.548Z,7.63
2022-08-23T04:02:48.566Z,7.53
2022-08-23T04:05:16.225Z,7.90
2022-08-23T04:08:13.857Z,6.32
2022-08-23T04:10:41.990Z,6.60
2022-08-23T04:13:11.347Z,6.88
2022-08-23T04:15:38.461Z,6.63
2022-08-23T04:18:06.596Z,6.68
2022-08-23T04:20:36.898Z,6.95
2022-08-23T04:23:05.712Z,7.20
2022-08-23T04:25:40.490Z,7.65
2022-08-23T04:28:07.573Z,7.80
2022-08-23T04:30:34.946Z,7.00
2022-08-23T04:33:04.547Z,7.43
2022-08-23T04:35:39.087Z,7.78
2022-08-23T04:38:24.304Z,6.47
2022-08-23T04:41:20.137Z,7.45
2022-08-23T04:43:47.428Z,6.50
2022-08-23T04:46:16.249Z,6.13
2022-08-23T04:48:46.866Z,6.20
2022-08-23T04:51:15.969Z,6.47
2022-08-23T04:53:44.492Z,7.00
2022-08-23T04:56:31.914Z,6.40
2022-08-23T04:58:58.936Z,5.75
2022-08-23T05:01:27.048Z,7.38
2022-08-23T05:03:55.364Z,5.65
2022-08-23T05:06:24.911Z,6.70
2022-08-23T05:08:53.048Z,7.35
2022-08-23T05:11:20.693Z,6.63
2022-08-23T05:13:49.086Z,7.03
2022-08-23T05:16:17.414Z,6.55
2022-08-23T05:18:53.769Z,6.38
2022-08-23T05:21:23.976Z,6.68
2022-08-23T05:23:54.833Z,6.55
2022-08-23T05:26:24.841Z,7.15
2022-08-23T05:28:52.078Z,7.05
2022-08-23T05:31:26.153Z,6.70
2022-08-23T05:33:56.080Z,7.57
2022-08-23T05:36:58.845Z,6.55
2022-08-23T05:39:36.499Z,6.57
2022-08-23T05:42:13.169Z,6.60
2022-08-23T05:44:41.105Z,6.90
2022-08-23T05:47:15.513Z,5.65
2022-08-23T05:50:09.613Z,7.25
2022-08-23T05:52:40.377Z,6.90
2022-08-23T05:55:08.154Z,6.47
2022-08-23T05:57:41.386Z,6.72
2022-08-23T06:00:14.276Z,7.95
2022-08-23T06:02:49.244Z,6.50
2022-08-23T06:05:18.453Z,6.63
2022-08-23T06:07:46.492Z,7.38
2022-08-23T06:10:19.493Z,6.47
2022-08-23T06:12:50.382Z,8.85
2022-08-23T06:15:17.531Z,7.85
2022-08-23T06:17:44.686Z,7.10
2022-08-23T06:20:11.926Z,8.07
2022-08-23T06:22:56.869Z,8.65
2022-08-23T06:25:23.865Z,8.50
2022-08-23T06:27:55.639Z,8.50
2022-08-23T06:30:23.473Z,7.30
2022-08-23T06:33:13.767Z,7.70
2022-08-23T06:35:48.971Z,7.75
2022-08-23T06:38:36.845Z,8.00
2022-08-23T06:41:17.818Z,7.60
2022-08-23T06:44:03.912Z,7.45
2022-08-23T06:46:55.730Z,8.43
2022-08-23T06:49:24.842Z,8.65
2022-08-23T06:51:56.404Z,7.55
2022-08-23T06:54:36.485Z,7.65
2022-08-23T06:57:32.588Z,8.02
2022-08-23T07:00:25.669Z,8.65
2022-08-23T07:03:27.964Z,7.47
2022-08-23T07:06:13.518Z,7.57
2022-08-23T07:08:41.156Z,7.97
2022-08-23T07:11:08.072Z,7.15
2022-08-23T07:13:39.945Z,6.93
2022-08-23T07:16:07.287Z,7.88
2022-08-23T07:18:34.647Z,7.82
2022-08-23T07:21:05.027Z,8.30
2022-08-23T07:23:34.987Z,8.20
2022-08-23T07:26:11.773Z,8.50
2022-08-23T07:28:41.194Z,8.50
2022-08-23T07:31:14.974Z,7.72
2022-08-23T07:33:45.211Z,7.95
2022-08-23T07:36:20.138Z,8.85
2022-08-23T07:38:51.337Z,8.10
2022-08-23T07:41:20.380Z,9.15
2022-08-23T07:43:48.128Z,8.02
2022-08-23T07:46:15.317Z,9.10
2022-08-23T07:48:53.888Z,8.75
2022-08-23T07:51:31.293Z,9.00
2022-08-23T07:53:59.014Z,7.88
2022-08-23T07:56:26.169Z,7.55
2022-08-23T07:58:58.565Z,9.20
2022-08-23T08:01:41.242Z,8.35
2022-08-23T08:04:08.670Z,7.82
2022-08-23T08:06:46.207Z,8.48
2022-08-23T08:09:15.622Z,8.77
2022-08-23T08:11:47.325Z,8.35
2022-08-23T08:14:17.556Z,7.80
2022-08-23T08:16:52.963Z,8.93
2022-08-23T08:19:36.135Z,10.25
2022-08-23T08:22:31.867Z,10.02
2022-08-23T08:25:12.804Z,9.65
2022-08-23T08:27:43.075Z,10.05
2022-08-23T08:30:12.278Z,10.20
2022-08-23T08:32:46.928Z,10.48
2022-08-23T08:35:15.398Z,10.50
2022-08-23T08:37:42.813Z,11.13
2022-08-23T08:40:11.628Z,10.93
2022-08-23T08:42:44.174Z,11.70
2022-08-23T08:45:26.548Z,11.20
2022-08-23T08:48:13.673Z,11.20
2022-08-23T08:50:57.702Z,11.95
2022-08-23T08:53:39.408Z,13.35
2022-08-23T08:56:36.830Z,13.05
2022-08-23T08:59:23.544Z,11.70
2022-08-23T09:01:51.532Z,12.88
2022-08-23T09:04:25.825Z,12.25
2022-08-23T09:07:16.349Z,12.40
2022-08-23T09:09:46.836Z,10.13
2022-08-23T09:12:30.991Z,9.93
2022-08-23T09:15:57.872Z,10.77
2022-08-23T09:18:25.055Z,10.35
2022-08-23T09:20:55.441Z,9.90
2022-08-23T09:23:32.375Z,11.63
2022-08-23T09:26:04.313Z,10.48
2022-08-23T09:28:37.552Z,10.60
2022-08-23T09:31:08.309Z,10.88
2022-08-23T09:33:42.377Z,9.95
2022-08-23T09:36:31.457Z,9.98
2022-08-23T09:39:22.722Z,9.07
2022-08-23T09:42:00.662Z,9.68
2022-08-23T09:44:44.280Z,9.23
2022-08-23T09:47:17.038Z,9.05
2022-08-23T09:49:52.028Z,8.18
2022-08-23T09:52:34.323Z,9.48
2022-08-23T09:55:25.021Z,8.65
2022-08-23T09:57:52.646Z,8.63
2022-08-23T10:00:32.423Z,7.68
2022-08-23T10:03:19.652Z,7.63
2022-08-23T10:05:56.159Z,8.25
2022-08-23T10:08:28.459Z,7.50
2022-08-23T10:11:20.187Z,7.43
2022-08-23T10:13:47.910Z,7.43
2022-08-23T10:16:58.476Z,7.40
2022-08-23T10:19:52.423Z,6.97
2022-08-23T10:22:26.887Z,7.18
2022-08-23T10:25:37.570Z,6.70
2022-08-23T10:28:45.265Z,7.05
2022-08-23T10:31:31.906Z,5.80
2022-08-23T10:34:47.116Z,6.38
2022-08-23T10:37:42.689Z,5.40
2022-08-23T10:40:23.555Z,5.22
2022-08-23T10:43:22.644Z,5.30
2022-08-23T10:45:50.232Z,5.75
2022-08-23T10:48:33.260Z,5.35
2022-08-23T10:51:21.274Z,5.68
2022-08-23T10:54:00.651Z,6.53
2022-08-23T10:56:28.786Z,5.38
2022-08-23T10:59:17.198Z,5.63
2022-08-23T11:02:06.647Z,5.22
2022-08-23T11:05:05.176Z,5.10
2022-08-23T11:07:43.042Z,5.10
2022-08-23T11:10:39.107Z,4.88
2022-08-23T11:13:12.510Z,4.82
2022-08-23T11:15:55.183Z,3.90
2022-08-23T11:18:45.250Z,4.95
2022-08-23T11:21:17.498Z,4.40
2022-08-23T11:24:16.384Z,4.85
2022-08-23T11:26:44.773Z,4.80
2022-08-23T11:29:21.248Z,4.88
2022-08-23T11:32:20.212Z,4.53
2022-08-23T11:35:04.508Z,4.90
2022-08-23T11:37:59.871Z,5.13
2022-08-23T11:40:52.664Z,5.22
2022-08-23T11:43:30.640Z,5.47
2022-08-23T11:46:31.552Z,4.80
2022-08-23T11:49:29.911Z,5.75
2022-08-23T11:52:30.579Z,5.85
2022-08-23T11:55:06.190Z,5.18
2022-08-23T11:58:03.962Z,5.38
2022-08-23T12:01:06.755Z,5.13
2022-08-23T12:03:58.662Z,5.32
2022-08-23T12:06:55.684Z,5.10
2022-08-23T12:09:22.523Z,5.30
2022-08-23T12:11:55.604Z,5.38
2022-08-23T12:14:31.608Z,5.20
2022-08-23T12:17:29.785Z,4.80
2022-08-23T12:20:16.900Z,5.50
2022-08-23T12:23:13.385Z,5.80
2022-08-23T12:25:41.209Z,6.30
2022-08-23T12:28:41.122Z,6.20
2022-08-23T12:31:44.771Z,4.82
2022-08-23T12:34:30.625Z,4.55
2022-08-23T12:37:13.523Z,5.30
2022-08-23T12:39:55.241Z,4.72
2022-08-23T12:42:33.394Z,4.68
2022-08-23T12:45:26.142Z,5.25
2022-08-23T12:48:02.714Z,5.32
2022-08-23T12:50:44.141Z,4.53
2022-08-23T12:53:16.101Z,5.15
2022-08-23T12:56:01.322Z,4.53
2022-08-23T12:58:33.640Z,5.50
2022-08-23T13:01:16.922Z,4.97
2022-08-23T13:03:47.976Z,6.30
2022-08-23T13:06:26.071Z,5.55
2022-08-23T13:09:17.300Z,6.43
2022-08-23T13:11:47.374Z,6.32
2022-08-23T13:14:43.327Z,5.25
2022-08-23T13:17:38.809Z,5.20
2022-08-23T13:20:09.437Z,5.00
2022-08-23T13:22:39.837Z,5.75
2022-08-23T13:25:32.016Z,4.88
2022-08-23T13:28:26.561Z,5.05
2022-08-23T13:31:08.529Z,4.20
2022-08-23T13:33:37.287Z,5.28
2022-08-23T13:36:21.239Z,5.47
2022-08-23T13:38:49.993Z,5.10
2022-08-23T13:41:38.551Z,5.55
2022-08-23T13:44:09.122Z,4.90
2022-08-23T13:46:47.394Z,4.65
2022-08-23T13:49:28.628Z,5.07
2022-08-23T13:54:50.826Z,5.20
2022-08-23T13:57:21.758Z,4.80
2022-08-23T13:59:54.662Z,4.75
2022-08-23T14:02:23.984Z,4.80
2022-08-23T14:04:53.227Z,4.55
2022-08-23T14:07:21.235Z,5.07
2022-08-23T14:09:55.056Z,3.83
2022-08-23T14:12:27.974Z,4.72
2022-08-23T14:14:58.387Z,4.20
2022-08-23T14:17:27.156Z,3.75
2022-08-23T14:20:32.843Z,4.32
2022-08-23T14:22:44.555Z,4.35
2022-08-23T14:25:14.166Z,4.20
2022-08-23T14:27:45.614Z,3.92
2022-08-23T14:30:36.438Z,4.30
2022-08-23T14:33:06.324Z,4.60
2022-08-23T14:35:34.707Z,4.18
2022-08-23T14:38:05.132Z,3.72
2022-08-23T14:40:35.457Z,4.45
2022-08-23T14:43:05.329Z,4.18
2022-08-23T14:45:33.832Z,4.10
2022-08-23T14:48:01.656Z,3.83
2022-08-23T14:50:29.674Z,4.07
2022-08-23T14:52:58.455Z,4.05
2022-08-23T14:55:26.226Z,4.55
2022-08-23T14:57:55.053Z,4.40
2022-08-23T15:00:22.550Z,4.20
2022-08-23T15:02:50.235Z,4.40
2022-08-23T15:05:18.205Z,3.47
2022-08-23T15:07:45.437Z,4.85
2022-08-23T15:13:20.626Z,3.95
2022-08-23T15:15:52.026Z,3.75
2022-08-23T15:18:20.161Z,3.60
2022-08-23T15:20:47.168Z,4.05
2022-08-23T15:23:15.003Z,4.05
2022-08-23T15:25:44.496Z,4.28
2022-08-23T15:28:17.077Z,4.43
2022-08-23T15:30:45.821Z,3.47
2022-08-23T15:33:13.081Z,3.47
2022-08-23T15:35:47.051Z,3.97
2022-08-23T15:38:16.464Z,3.70
2022-08-23T15:40:44.321Z,4.00
2022-08-23T15:43:11.794Z,3.40
2022-08-23T15:45:39.358Z,3.20
2022-08-23T15:48:28.837Z,3.67
2022-08-23T15:50:58.323Z,4.10
2022-08-23T15:53:26.218Z,3.90
2022-08-23T15:55:54.046Z,4.22
2022-08-23T15:58:26.231Z,3.63
2022-08-23T16:00:54.227Z,3.55
2022-08-23T16:03:22.821Z,3.67
2022-08-23T16:05:53.948Z,3.38
2022-08-23T16:08:30.069Z,3.72
2022-08-23T16:10:58.536Z,3.88
2022-08-23T16:13:27.045Z,3.15
2022-08-23T16:15:54.749Z,3.25
2022-08-23T16:18:21.877Z,3.08
2022-08-23T16:20:50.086Z,3.53
2022-08-23T16:23:21.962Z,3.83
2022-08-23T16:25:49.023Z,3.95
2022-08-23T16:28:15.958Z,3.85
2022-08-23T16:30:42.884Z,4.15
2022-08-23T16:33:09.966Z,3.40
2022-08-23T16:35:37.639Z,3.15
2022-08-23T16:38:04.604Z,3.80
2022-08-23T16:40:31.957Z,3.28
2022-08-23T16:42:59.096Z,3.60
2022-08-23T16:45:26.645Z,3.30
2022-08-23T16:47:54.126Z,3.50
2022-08-23T16:50:21.528Z,3.55
2022-08-23T16:52:48.462Z,4.10
2022-08-23T16:55:15.561Z,3.38
2022-08-23T16:57:42.520Z,4.03
2022-08-23T17:00:13.208Z,3.85
2022-08-23T17:02:41.366Z,4.05
2022-08-23T17:05:15.482Z,4.07
2022-08-23T17:07:42.617Z,3.88
2022-08-23T17:10:12.147Z,3.88
2022-08-23T17:12:47.073Z,3.97
2022-08-23T17:15:20.481Z,3.90
2022-08-23T17:17:48.633Z,3.88
2022-08-23T17:20:20.139Z,4.25
2022-08-23T17:22:48.046Z,3.50
2022-08-23T17:25:17.240Z,3.90
2022-08-23T17:27:46.466Z,3.55
2022-08-23T17:30:17.987Z,3.95
2022-08-23T17:32:47.781Z,3.65
2022-08-23T17:35:19.812Z,4.20
2022-08-23T17:37:47.258Z,3.95
2022-08-23T17:40:19.913Z,4.50
2022-08-23T17:42:48.830Z,3.90
2022-08-23T17:45:17.087Z,4.80
2022-08-23T17:47:44.541Z,4.15
2022-08-23T17:50:12.438Z,5.10
2022-08-23T17:52:39.598Z,4.57
2022-08-23T17:55:10.467Z,4.07
2022-08-23T17:57:39.552Z,4.15
2022-08-23T18:00:08.768Z,4.10
2022-08-23T18:02:38.120Z,4.13
2022-08-23T18:05:07.306Z,3.97
2022-08-23T18:07:34.404Z,3.95
2022-08-23T18:10:01.352Z,4.55
2022-08-23T18:12:28.532Z,4.80
2022-08-23T18:14:55.934Z,4.10
2022-08-23T18:17:23.376Z,3.58
2022-08-23T18:19:50.960Z,4.35
2022-08-23T18:22:17.941Z,5.13
2022-08-23T18:24:44.964Z,4.90
2022-08-23T18:27:30.742Z,4.60
2022-08-23T18:29:57.737Z,4.40
2022-08-23T18:32:24.945Z,4.78
2022-08-23T18:34:52.281Z,4.30
2022-08-23T18:37:21.841Z,4.30
2022-08-23T18:39:49.838Z,4.90
2022-08-23T18:42:17.134Z,5.28
2022-08-23T18:44:44.443Z,5.38
2022-08-23T18:47:11.593Z,5.30
2022-08-23T18:49:38.781Z,5.43
2022-08-23T18:52:06.127Z,5.68
2022-08-23T18:54:34.237Z,6.75
2022-08-23T18:57:02.859Z,5.63
2022-08-23T18:59:30.889Z,5.18
2022-08-23T19:01:58.924Z,5.60
2022-08-23T19:04:26.397Z,6.10
2022-08-23T19:06:54.473Z,5.53
2022-08-23T19:09:21.761Z,5.38
2022-08-23T19:11:49.227Z,6.07
2022-08-23T19:14:16.228Z,6.00
2022-08-23T19:16:47.549Z,5.28
2022-08-23T19:19:16.649Z,5.30
2022-08-23T19:21:43.611Z,5.60
2022-08-23T19:24:10.811Z,5.80
2022-08-23T19:26:38.210Z,5.35
2022-08-23T19:29:09.297Z,5.85
2022-08-23T19:31:42.857Z,5.30
2022-08-23T19:34:11.366Z,5.40
2022-08-23T19:36:49.254Z,5.70
2022-08-23T19:39:19.309Z,5.70
2022-08-23T19:41:48.616Z,5.75
2022-08-23T19:44:17.646Z,6.18
2022-08-23T19:46:45.696Z,5.78
2022-08-23T19:49:14.595Z,6.25
2022-08-23T19:51:43.603Z,5.90
2022-08-23T19:54:12.769Z,5.97
2022-08-23T19:56:49.064Z,6.15
2022-08-23T19:59:25.685Z,5.38
2022-08-23T20:01:55.530Z,5.80
2022-08-23T20:04:25.154Z,5.57
2022-08-23T20:06:53.413Z,6.10
2022-08-23T20:09:22.725Z,4.90
2022-08-23T20:11:52.649Z,5.68
2022-08-23T20:14:24.543Z,5.47
2022-08-23T20:16:54.234Z,6.47
2022-08-23T20:19:21.874Z,6.03
2022-08-23T20:21:49.653Z,6.57
2022-08-23T20:24:25.523Z,5.80
2022-08-23T20:26:55.842Z,6.70
2022-08-23T20:29:22.989Z,6.25
2022-08-23T20:31:57.455Z,6.03
2022-08-23T20:34:26.553Z,6.03
2022-08-23T20:36:55.867Z,6.47
2022-08-23T20:39:24.267Z,7.10
2022-08-23T20:41:53.222Z,6.20
2022-08-23T20:44:26.127Z,6.47
2022-08-23T20:46:55.934Z,6.95
2022-08-23T20:49:25.929Z,6.57
2022-08-23T20:51:52.840Z,6.40
2022-08-23T20:54:20.177Z,6.15
2022-08-23T20:56:51.442Z,6.10
2022-08-23T20:59:20.495Z,6.40
2022-08-23T21:01:48.206Z,6.35
2022-08-23T21:04:15.217Z,6.63
2022-08-23T21:06:52.238Z,6.50
2022-08-23T21:09:27.461Z,6.68
2022-08-23T21:11:57.552Z,6.90
2022-08-23T21:14:24.669Z,6.90
2022-08-23T21:16:52.145Z,6.90
2022-08-23T21:19:19.170Z,6.80
2022-08-23T21:21:46.483Z,6.97
2022-08-23T21:24:13.705Z,6.70
2022-08-23T21:26:41.274Z,7.13
2022-08-23T21:29:09.956Z,7.63
2022-08-23T21:31:37.630Z,7.60
2022-08-23T21:34:05.074Z,7.93
2022-08-23T21:36:32.135Z,7.68
2022-08-23T21:38:59.015Z,7.80
2022-08-23T21:41:44.714Z,8.57
2022-08-23T21:44:16.643Z,8.20
2022-08-23T21:46:45.152Z,7.40
2022-08-23T21:49:12.787Z,7.75
2022-08-23T21:51:41.836Z,8.05
2022-08-23T21:54:11.271Z,7.65
2022-08-23T21:56:39.153Z,8.00
2022-08-23T21:59:11.219Z,7.95
2022-08-23T22:01:39.127Z,7.47
2022-08-23T22:04:10.121Z,9.52
2022-08-23T22:06:38.702Z,7.28
2022-08-23T22:09:10.472Z,7.68
2022-08-23T22:11:40.585Z,6.95
2022-08-23T22:14:15.037Z,6.82
2022-08-23T22:16:44.085Z,7.32
2022-08-23T22:19:15.169Z,7.55
2022-08-23T22:21:45.949Z,7.03
2022-08-23T22:24:14.621Z,6.95
2022-08-23T22:26:43.479Z,7.63
2022-08-23T22:29:13.338Z,8.35
2022-08-23T22:31:41.405Z,8.18
2022-08-23T22:34:10.529Z,8.52
2022-08-23T22:36:37.404Z,7.55
2022-08-23T22:39:05.047Z,7.97
2022-08-23T22:41:33.101Z,8.00
2022-08-23T22:44:02.758Z,8.98
2022-08-23T22:46:33.061Z,7.82
2022-08-23T22:49:00.769Z,8.35
2022-08-23T22:51:32.827Z,8.70
2022-08-23T22:54:04.970Z,8.52
2022-08-23T22:56:40.993Z,8.43
2022-08-23T22:59:09.412Z,8.82
2022-08-23T23:01:44.242Z,8.82
2022-08-23T23:04:14.110Z,7.95
2022-08-23T23:06:41.877Z,10.82
2022-08-23T23:09:11.377Z,10.57
2022-08-23T23:11:40.436Z,9.07
2022-08-23T23:14:09.266Z,8.95
2022-08-23T23:16:36.544Z,8.50
2022-08-23T23:19:23.186Z,10.52
2022-08-23T23:21:54.671Z,8.45
2022-08-23T23:24:29.681Z,8.70
2022-08-23T23:26:57.684Z,8.15
2022-08-23T23:29:25.866Z,8.27
2022-08-23T23:31:52.983Z,7.70
2022-08-23T23:34:20.215Z,8.32
2022-08-23T23:36:47.573Z,7.95
2022-08-23T23:39:16.167Z,8.40
2022-08-23T23:41:43.738Z,8.23
2022-08-23T23:44:10.899Z,9.80
2022-08-23T23:46:37.848Z,8.80
2022-08-23T23:49:05.616Z,9.05
2022-08-23T23:51:33.948Z,8.23
2022-08-23T23:54:03.940Z,8.13
2022-08-23T23:56:34.788Z,8.23
2022-08-23T23:59:01.860Z,8.40
